sensor_id;sensor_type;location;lat;lon;timestamp;temperature;humidity
18753;DHT22;9505;50.882;5.350;2024-02-21T00:00:47;9.50;99.90
18753;DHT22;9505;50.882;5.350;2024-02-21T00:03:13;9.50;99.90
18753;DHT22;9505;50.882;5.350;2024-02-21T00:05:39;9.50;99.90
18753;DHT22;9505;50.882;5.350;2024-02-21T00:08:04;9.50;99.90
18753;DHT22;9505;50.882;5.350;2024-02-21T00:10:30;9.40;99.90
18753;DHT22;9505;50.882;5.350;2024-02-21T00:12:58;9.40;99.90
18753;DHT22;9505;50.882;5.350;2024-02-21T00:15:25;9.40;99.90
18753;DHT22;9505;50.882;5.350;2024-02-21T00:17:50;9.40;99.90
18753;DHT22;9505;50.882;5.350;2024-02-21T00:20:16;9.40;99.90
18753;DHT22;9505;50.882;5.350;2024-02-21T00:22:43;9.30;99.90
18753;DHT22;9505;50.882;5.350;2024-02-21T00:25:09;9.40;99.90
18753;DHT22;9505;50.882;5.350;2024-02-21T00:27:34;9.50;99.90
18753;DHT22;9505;50.882;5.350;2024-02-21T00:30:00;9.50;99.90
18753;DHT22;9505;50.882;5.350;2024-02-21T00:32:26;9.40;99.90
18753;DHT22;9505;50.882;5.350;2024-02-21T00:34:51;9.50;99.90
18753;DHT22;9505;50.882;5.350;2024-02-21T00:37:17;9.50;99.90
18753;DHT22;9505;50.882;5.350;2024-02-21T00:39:43;9.50;99.90
18753;DHT22;9505;50.882;5.350;2024-02-21T00:42:08;9.40;99.90
18753;DHT22;9505;50.882;5.350;2024-02-21T00:44:34;9.50;99.90
18753;DHT22;9505;50.882;5.350;2024-02-21T00:47:00;9.50;99.90
18753;DHT22;9505;50.882;5.350;2024-02-21T00:49:25;9.40;99.90
18753;DHT22;9505;50.882;5.350;2024-02-21T00:51:51;9.40;99.90
18753;DHT22;9505;50.882;5.350;2024-02-21T00:54:16;9.40;99.90
18753;DHT22;9505;50.882;5.350;2024-02-21T00:56:43;9.40;99.90
18753;DHT22;9505;50.882;5.350;2024-02-21T00:59:08;9.30;99.90
18753;DHT22;9505;50.882;5.350;2024-02-21T01:01:34;9.30;99.90
18753;DHT22;9505;50.882;5.350;2024-02-21T01:04:00;9.20;99.90
18753;DHT22;9505;50.882;5.350;2024-02-21T01:06:25;9.30;99.90
18753;DHT22;9505;50.882;5.350;2024-02-21T01:08:51;9.30;99.90
18753;DHT22;9505;50.882;5.350;2024-02-21T01:11:17;9.40;99.90
18753;DHT22;9505;50.882;5.350;2024-02-21T01:13:43;9.30;99.90
18753;DHT22;9505;50.882;5.350;2024-02-21T01:16:09;9.30;99.90
18753;DHT22;9505;50.882;5.350;2024-02-21T01:18:37;9.30;99.90
18753;DHT22;9505;50.882;5.350;2024-02-21T01:21:04;9.40;99.90
18753;DHT22;9505;50.882;5.350;2024-02-21T01:23:33;9.50;99.90
18753;DHT22;9505;50.882;5.350;2024-02-21T01:25:59;9.40;99.90
18753;DHT22;9505;50.882;5.350;2024-02-21T01:28:24;9.40;99.90
18753;DHT22;9505;50.882;5.350;2024-02-21T01:30:50;9.40;99.90
18753;DHT22;9505;50.882;5.350;2024-02-21T01:33:17;9.40;99.90
18753;DHT22;9505;50.882;5.350;2024-02-21T01:35:42;9.30;99.90
18753;DHT22;9505;50.882;5.350;2024-02-21T01:38:08;9.30;99.90
18753;DHT22;9505;50.882;5.350;2024-02-21T01:40:33;9.30;99.90
18753;DHT22;9505;50.882;5.350;2024-02-21T01:42:59;9.30;99.90
18753;DHT22;9505;50.882;5.350;2024-02-21T01:45:25;9.30;99.90
18753;DHT22;9505;50.882;5.350;2024-02-21T01:47:50;9.40;99.90
18753;DHT22;9505;50.882;5.350;2024-02-21T01:50:16;9.40;99.90
18753;DHT22;9505;50.882;5.350;2024-02-21T01:52:43;9.50;99.90
18753;DHT22;9505;50.882;5.350;2024-02-21T01:55:13;9.50;99.90
18753;DHT22;9505;50.882;5.350;2024-02-21T01:57:41;9.40;99.90
18753;DHT22;9505;50.882;5.350;2024-02-21T02:00:09;9.40;99.90
18753;DHT22;9505;50.882;5.350;2024-02-21T02:02:36;9.40;99.90
18753;DHT22;9505;50.882;5.350;2024-02-21T02:05:04;9.30;99.90
18753;DHT22;9505;50.882;5.350;2024-02-21T02:07:31;9.30;99.90
18753;DHT22;9505;50.882;5.350;2024-02-21T02:09:57;9.30;99.90
18753;DHT22;9505;50.882;5.350;2024-02-21T02:12:22;9.30;99.90
18753;DHT22;9505;50.882;5.350;2024-02-21T02:15:01;9.30;99.90
18753;DHT22;9505;50.882;5.350;2024-02-21T02:17:30;9.30;99.90
18753;DHT22;9505;50.882;5.350;2024-02-21T02:19:56;9.30;99.90
18753;DHT22;9505;50.882;5.350;2024-02-21T02:22:29;9.20;99.90
18753;DHT22;9505;50.882;5.350;2024-02-21T02:24:55;9.10;99.90
18753;DHT22;9505;50.882;5.350;2024-02-21T02:27:21;9.10;99.90
18753;DHT22;9505;50.882;5.350;2024-02-21T02:29:48;9.10;99.90
18753;DHT22;9505;50.882;5.350;2024-02-21T02:32:14;9.20;99.90
18753;DHT22;9505;50.882;5.350;2024-02-21T02:34:39;9.20;99.90
18753;DHT22;9505;50.882;5.350;2024-02-21T02:37:05;9.20;99.90
18753;DHT22;9505;50.882;5.350;2024-02-21T02:39:30;9.20;99.90
18753;DHT22;9505;50.882;5.350;2024-02-21T02:41:56;9.00;99.90
18753;DHT22;9505;50.882;5.350;2024-02-21T02:44:22;9.00;99.90
18753;DHT22;9505;50.882;5.350;2024-02-21T02:46:47;9.00;99.90
18753;DHT22;9505;50.882;5.350;2024-02-21T02:49:13;9.10;99.90
18753;DHT22;9505;50.882;5.350;2024-02-21T02:51:42;9.10;99.90
18753;DHT22;9505;50.882;5.350;2024-02-21T02:54:09;9.10;99.90
18753;DHT22;9505;50.882;5.350;2024-02-21T02:56:34;9.10;99.90
18753;DHT22;9505;50.882;5.350;2024-02-21T02:59:00;9.00;99.90
18753;DHT22;9505;50.882;5.350;2024-02-21T03:01:26;9.00;99.90
18753;DHT22;9505;50.882;5.350;2024-02-21T03:03:52;9.00;99.90
18753;DHT22;9505;50.882;5.350;2024-02-21T03:06:17;8.90;99.90
18753;DHT22;9505;50.882;5.350;2024-02-21T03:08:43;9.00;99.90
18753;DHT22;9505;50.882;5.350;2024-02-21T03:11:08;9.00;99.90
18753;DHT22;9505;50.882;5.350;2024-02-21T03:13:34;9.00;99.90
18753;DHT22;9505;50.882;5.350;2024-02-21T03:16:00;8.90;99.90
18753;DHT22;9505;50.882;5.350;2024-02-21T03:18:25;9.00;99.90
18753;DHT22;9505;50.882;5.350;2024-02-21T03:20:51;8.90;99.90
18753;DHT22;9505;50.882;5.350;2024-02-21T03:23:16;8.90;99.90
18753;DHT22;9505;50.882;5.350;2024-02-21T03:25:42;8.90;99.90
18753;DHT22;9505;50.882;5.350;2024-02-21T03:28:07;8.90;99.90
18753;DHT22;9505;50.882;5.350;2024-02-21T03:30:33;8.90;99.90
18753;DHT22;9505;50.882;5.350;2024-02-21T03:32:59;8.90;99.90
18753;DHT22;9505;50.882;5.350;2024-02-21T03:35:25;8.90;99.90
18753;DHT22;9505;50.882;5.350;2024-02-21T03:37:52;8.90;99.90
18753;DHT22;9505;50.882;5.350;2024-02-21T03:40:18;9.00;99.90
18753;DHT22;9505;50.882;5.350;2024-02-21T03:42:44;9.00;99.90
18753;DHT22;9505;50.882;5.350;2024-02-21T03:45:09;9.00;99.90
18753;DHT22;9505;50.882;5.350;2024-02-21T03:47:35;8.90;99.90
18753;DHT22;9505;50.882;5.350;2024-02-21T03:50:00;8.90;99.90
18753;DHT22;9505;50.882;5.350;2024-02-21T03:52:26;8.90;99.90
18753;DHT22;9505;50.882;5.350;2024-02-21T03:54:52;9.00;99.90
18753;DHT22;9505;50.882;5.350;2024-02-21T03:57:17;9.00;99.90
18753;DHT22;9505;50.882;5.350;2024-02-21T03:59:43;9.00;99.90
18753;DHT22;9505;50.882;5.350;2024-02-21T04:02:08;9.00;99.90
18753;DHT22;9505;50.882;5.350;2024-02-21T04:04:35;9.00;99.90
18753;DHT22;9505;50.882;5.350;2024-02-21T04:07:03;9.00;99.90
18753;DHT22;9505;50.882;5.350;2024-02-21T04:09:35;9.00;99.90
18753;DHT22;9505;50.882;5.350;2024-02-21T04:12:01;9.00;99.90
18753;DHT22;9505;50.882;5.350;2024-02-21T04:14:26;8.90;99.90
18753;DHT22;9505;50.882;5.350;2024-02-21T04:16:52;9.00;99.90
18753;DHT22;9505;50.882;5.350;2024-02-21T04:19:18;8.90;99.90
18753;DHT22;9505;50.882;5.350;2024-02-21T04:21:43;8.90;99.90
18753;DHT22;9505;50.882;5.350;2024-02-21T04:24:10;8.90;99.90
18753;DHT22;9505;50.882;5.350;2024-02-21T04:26:35;8.90;99.90
18753;DHT22;9505;50.882;5.350;2024-02-21T04:29:01;8.90;99.90
18753;DHT22;9505;50.882;5.350;2024-02-21T04:31:27;8.90;99.90
18753;DHT22;9505;50.882;5.350;2024-02-21T04:33:52;8.80;99.90
18753;DHT22;9505;50.882;5.350;2024-02-21T04:36:18;8.80;99.90
18753;DHT22;9505;50.882;5.350;2024-02-21T04:38:43;8.80;99.90
18753;DHT22;9505;50.882;5.350;2024-02-21T04:41:09;8.90;99.90
18753;DHT22;9505;50.882;5.350;2024-02-21T04:43:35;8.90;99.90
18753;DHT22;9505;50.882;5.350;2024-02-21T04:46:00;8.90;99.90
18753;DHT22;9505;50.882;5.350;2024-02-21T04:48:26;8.80;99.90
18753;DHT22;9505;50.882;5.350;2024-02-21T04:50:51;8.70;99.90
18753;DHT22;9505;50.882;5.350;2024-02-21T04:53:17;8.80;99.90
18753;DHT22;9505;50.882;5.350;2024-02-21T04:55:43;8.80;99.90
18753;DHT22;9505;50.882;5.350;2024-02-21T04:58:09;8.80;99.90
18753;DHT22;9505;50.882;5.350;2024-02-21T05:00:35;8.80;99.90
18753;DHT22;9505;50.882;5.350;2024-02-21T05:03:01;8.80;99.90
18753;DHT22;9505;50.882;5.350;2024-02-21T05:05:26;8.80;99.90
18753;DHT22;9505;50.882;5.350;2024-02-21T05:07:52;8.80;99.90
18753;DHT22;9505;50.882;5.350;2024-02-21T05:10:17;8.80;99.90
18753;DHT22;9505;50.882;5.350;2024-02-21T05:12:44;8.80;99.90
18753;DHT22;9505;50.882;5.350;2024-02-21T05:15:10;8.80;99.90
18753;DHT22;9505;50.882;5.350;2024-02-21T05:17:35;8.80;99.90
18753;DHT22;9505;50.882;5.350;2024-02-21T05:20:01;8.80;99.90
18753;DHT22;9505;50.882;5.350;2024-02-21T05:22:27;8.80;99.90
18753;DHT22;9505;50.882;5.350;2024-02-21T05:24:52;8.80;99.90
18753;DHT22;9505;50.882;5.350;2024-02-21T05:27:18;8.80;99.90
18753;DHT22;9505;50.882;5.350;2024-02-21T05:29:43;8.80;99.90
18753;DHT22;9505;50.882;5.350;2024-02-21T05:32:09;8.80;99.90
18753;DHT22;9505;50.882;5.350;2024-02-21T05:34:35;8.70;99.90
18753;DHT22;9505;50.882;5.350;2024-02-21T05:37:01;8.70;99.90
18753;DHT22;9505;50.882;5.350;2024-02-21T05:39:26;8.70;99.90
18753;DHT22;9505;50.882;5.350;2024-02-21T05:41:52;8.70;99.90
18753;DHT22;9505;50.882;5.350;2024-02-21T05:44:18;8.70;99.90
18753;DHT22;9505;50.882;5.350;2024-02-21T05:46:44;8.70;99.90
18753;DHT22;9505;50.882;5.350;2024-02-21T05:49:10;8.70;99.90
18753;DHT22;9505;50.882;5.350;2024-02-21T05:51:36;8.70;99.90
18753;DHT22;9505;50.882;5.350;2024-02-21T05:54:01;8.60;99.90
18753;DHT22;9505;50.882;5.350;2024-02-21T05:56:27;8.60;99.90
18753;DHT22;9505;50.882;5.350;2024-02-21T05:58:53;8.60;99.90
18753;DHT22;9505;50.882;5.350;2024-02-21T06:01:19;8.60;99.90
18753;DHT22;9505;50.882;5.350;2024-02-21T06:03:47;8.60;99.90
18753;DHT22;9505;50.882;5.350;2024-02-21T06:06:12;8.60;99.90
18753;DHT22;9505;50.882;5.350;2024-02-21T06:08:40;8.60;99.90
18753;DHT22;9505;50.882;5.350;2024-02-21T06:11:06;8.70;99.90
18753;DHT22;9505;50.882;5.350;2024-02-21T06:13:32;8.80;99.90
18753;DHT22;9505;50.882;5.350;2024-02-21T06:15:57;8.80;99.90
18753;DHT22;9505;50.882;5.350;2024-02-21T06:18:23;8.70;99.90
18753;DHT22;9505;50.882;5.350;2024-02-21T06:20:48;8.70;99.90
18753;DHT22;9505;50.882;5.350;2024-02-21T06:23:16;8.70;99.90
18753;DHT22;9505;50.882;5.350;2024-02-21T06:25:45;8.60;99.90
18753;DHT22;9505;50.882;5.350;2024-02-21T06:28:11;8.60;99.90
18753;DHT22;9505;50.882;5.350;2024-02-21T06:30:37;8.50;99.90
18753;DHT22;9505;50.882;5.350;2024-02-21T06:33:03;8.50;99.90
18753;DHT22;9505;50.882;5.350;2024-02-21T06:35:29;8.50;99.90
18753;DHT22;9505;50.882;5.350;2024-02-21T06:37:54;8.40;99.90
18753;DHT22;9505;50.882;5.350;2024-02-21T06:40:21;8.50;99.90
18753;DHT22;9505;50.882;5.350;2024-02-21T06:42:47;8.40;99.90
18753;DHT22;9505;50.882;5.350;2024-02-21T06:45:13;8.50;99.90
18753;DHT22;9505;50.882;5.350;2024-02-21T06:47:39;8.50;99.90
18753;DHT22;9505;50.882;5.350;2024-02-21T06:50:04;8.40;99.90
18753;DHT22;9505;50.882;5.350;2024-02-21T06:52:30;8.40;99.90
18753;DHT22;9505;50.882;5.350;2024-02-21T06:54:56;8.50;99.90
18753;DHT22;9505;50.882;5.350;2024-02-21T06:57:22;8.50;99.90
18753;DHT22;9505;50.882;5.350;2024-02-21T06:59:48;8.30;99.90
18753;DHT22;9505;50.882;5.350;2024-02-21T07:02:13;8.40;99.90
18753;DHT22;9505;50.882;5.350;2024-02-21T07:04:39;8.30;99.90
18753;DHT22;9505;50.882;5.350;2024-02-21T07:07:05;8.30;99.90
18753;DHT22;9505;50.882;5.350;2024-02-21T07:09:30;8.30;99.90
18753;DHT22;9505;50.882;5.350;2024-02-21T07:11:58;8.20;99.90
18753;DHT22;9505;50.882;5.350;2024-02-21T07:14:24;8.20;99.90
18753;DHT22;9505;50.882;5.350;2024-02-21T07:16:49;8.30;99.90
18753;DHT22;9505;50.882;5.350;2024-02-21T07:19:15;8.30;99.90
18753;DHT22;9505;50.882;5.350;2024-02-21T07:21:41;8.30;99.90
18753;DHT22;9505;50.882;5.350;2024-02-21T07:24:09;8.30;99.90
18753;DHT22;9505;50.882;5.350;2024-02-21T07:26:35;8.30;99.90
18753;DHT22;9505;50.882;5.350;2024-02-21T07:29:00;8.20;99.90
18753;DHT22;9505;50.882;5.350;2024-02-21T07:31:26;8.30;99.90
18753;DHT22;9505;50.882;5.350;2024-02-21T07:33:52;8.40;99.90
18753;DHT22;9505;50.882;5.350;2024-02-21T07:36:28;8.40;99.90
18753;DHT22;9505;50.882;5.350;2024-02-21T07:38:53;8.40;99.90
18753;DHT22;9505;50.882;5.350;2024-02-21T07:41:19;8.40;99.90
18753;DHT22;9505;50.882;5.350;2024-02-21T07:43:45;8.50;99.90
18753;DHT22;9505;50.882;5.350;2024-02-21T07:46:10;8.50;99.90
18753;DHT22;9505;50.882;5.350;2024-02-21T07:48:36;8.50;99.90
18753;DHT22;9505;50.882;5.350;2024-02-21T07:51:01;8.60;99.90
18753;DHT22;9505;50.882;5.350;2024-02-21T07:53:28;8.60;99.90
18753;DHT22;9505;50.882;5.350;2024-02-21T07:55:53;8.60;99.90
18753;DHT22;9505;50.882;5.350;2024-02-21T07:58:19;8.60;99.90
18753;DHT22;9505;50.882;5.350;2024-02-21T08:00:44;8.50;99.90
18753;DHT22;9505;50.882;5.350;2024-02-21T08:03:10;8.60;99.90
18753;DHT22;9505;50.882;5.350;2024-02-21T08:05:35;8.70;99.90
18753;DHT22;9505;50.882;5.350;2024-02-21T08:08:02;8.70;99.90
18753;DHT22;9505;50.882;5.350;2024-02-21T08:10:28;8.70;99.90
18753;DHT22;9505;50.882;5.350;2024-02-21T08:12:54;8.80;99.90
18753;DHT22;9505;50.882;5.350;2024-02-21T08:15:19;8.80;99.90
18753;DHT22;9505;50.882;5.350;2024-02-21T08:17:49;8.90;99.90
18753;DHT22;9505;50.882;5.350;2024-02-21T08:20:15;8.90;99.90
18753;DHT22;9505;50.882;5.350;2024-02-21T08:22:40;8.90;99.90
18753;DHT22;9505;50.882;5.350;2024-02-21T08:25:06;9.00;99.90
18753;DHT22;9505;50.882;5.350;2024-02-21T08:27:32;9.10;99.90
18753;DHT22;9505;50.882;5.350;2024-02-21T08:29:57;9.10;99.90
18753;DHT22;9505;50.882;5.350;2024-02-21T08:32:23;9.10;99.90
18753;DHT22;9505;50.882;5.350;2024-02-21T08:34:48;9.10;99.90
18753;DHT22;9505;50.882;5.350;2024-02-21T08:37:14;9.10;99.90
18753;DHT22;9505;50.882;5.350;2024-02-21T08:39:39;9.10;99.90
18753;DHT22;9505;50.882;5.350;2024-02-21T08:42:05;9.20;99.90
18753;DHT22;9505;50.882;5.350;2024-02-21T08:44:31;9.10;99.90
18753;DHT22;9505;50.882;5.350;2024-02-21T08:46:56;9.10;99.90
18753;DHT22;9505;50.882;5.350;2024-02-21T08:49:22;9.20;99.90
18753;DHT22;9505;50.882;5.350;2024-02-21T08:51:48;9.20;99.90
18753;DHT22;9505;50.882;5.350;2024-02-21T08:54:13;9.20;99.90
18753;DHT22;9505;50.882;5.350;2024-02-21T08:56:39;9.20;99.90
18753;DHT22;9505;50.882;5.350;2024-02-21T08:59:05;9.20;99.90
18753;DHT22;9505;50.882;5.350;2024-02-21T09:01:30;9.20;99.90
18753;DHT22;9505;50.882;5.350;2024-02-21T09:03:56;9.30;99.90
18753;DHT22;9505;50.882;5.350;2024-02-21T09:06:22;9.30;99.90
18753;DHT22;9505;50.882;5.350;2024-02-21T09:08:48;9.40;99.90
18753;DHT22;9505;50.882;5.350;2024-02-21T09:11:14;9.50;99.90
18753;DHT22;9505;50.882;5.350;2024-02-21T09:13:40;9.40;99.90
18753;DHT22;9505;50.882;5.350;2024-02-21T09:16:06;9.40;99.90
18753;DHT22;9505;50.882;5.350;2024-02-21T09:18:32;9.40;99.90
18753;DHT22;9505;50.882;5.350;2024-02-21T09:20:57;9.40;99.90
18753;DHT22;9505;50.882;5.350;2024-02-21T09:23:26;9.50;99.90
18753;DHT22;9505;50.882;5.350;2024-02-21T09:25:52;9.50;99.90
18753;DHT22;9505;50.882;5.350;2024-02-21T09:28:18;9.60;99.90
18753;DHT22;9505;50.882;5.350;2024-02-21T09:30:44;9.60;99.90
18753;DHT22;9505;50.882;5.350;2024-02-21T09:33:10;9.60;99.90
18753;DHT22;9505;50.882;5.350;2024-02-21T09:35:35;9.60;99.90
18753;DHT22;9505;50.882;5.350;2024-02-21T09:38:01;9.70;99.90
18753;DHT22;9505;50.882;5.350;2024-02-21T09:40:27;9.80;99.90
18753;DHT22;9505;50.882;5.350;2024-02-21T09:43:02;9.90;99.90
18753;DHT22;9505;50.882;5.350;2024-02-21T09:45:33;10.00;99.90
18753;DHT22;9505;50.882;5.350;2024-02-21T09:50:55;10.10;99.90
18753;DHT22;9505;50.882;5.350;2024-02-21T09:53:24;10.20;99.90
18753;DHT22;9505;50.882;5.350;2024-02-21T09:55:50;10.20;99.90
18753;DHT22;9505;50.882;5.350;2024-02-21T09:58:16;10.30;99.90
18753;DHT22;9505;50.882;5.350;2024-02-21T10:00:42;10.50;99.90
18753;DHT22;9505;50.882;5.350;2024-02-21T10:03:08;10.60;99.90
18753;DHT22;9505;50.882;5.350;2024-02-21T10:05:35;10.50;99.90
18753;DHT22;9505;50.882;5.350;2024-02-21T10:08:01;10.60;99.90
18753;DHT22;9505;50.882;5.350;2024-02-21T10:10:27;10.60;99.90
18753;DHT22;9505;50.882;5.350;2024-02-21T10:12:53;10.60;99.90
18753;DHT22;9505;50.882;5.350;2024-02-21T10:15:24;10.60;99.90
18753;DHT22;9505;50.882;5.350;2024-02-21T10:17:58;10.70;99.90
18753;DHT22;9505;50.882;5.350;2024-02-21T10:20:24;10.60;99.90
18753;DHT22;9505;50.882;5.350;2024-02-21T10:23:03;10.60;99.90
18753;DHT22;9505;50.882;5.350;2024-02-21T10:25:34;10.60;99.90
18753;DHT22;9505;50.882;5.350;2024-02-21T10:27:59;10.80;99.90
18753;DHT22;9505;50.882;5.350;2024-02-21T10:30:25;10.80;99.90
18753;DHT22;9505;50.882;5.350;2024-02-21T10:32:51;10.60;99.90
18753;DHT22;9505;50.882;5.350;2024-02-21T10:35:31;10.50;99.90
18753;DHT22;9505;50.882;5.350;2024-02-21T10:37:58;10.60;99.90
18753;DHT22;9505;50.882;5.350;2024-02-21T10:40:28;10.70;99.90
18753;DHT22;9505;50.882;5.350;2024-02-21T10:42:59;10.80;99.90
18753;DHT22;9505;50.882;5.350;2024-02-21T10:45:34;10.90;99.90
18753;DHT22;9505;50.882;5.350;2024-02-21T10:48:14;11.20;99.90
18753;DHT22;9505;50.882;5.350;2024-02-21T10:51:12;11.20;99.90
18753;DHT22;9505;50.882;5.350;2024-02-21T10:56:38;11.20;99.90
18753;DHT22;9505;50.882;5.350;2024-02-21T10:59:06;11.10;99.90
18753;DHT22;9505;50.882;5.350;2024-02-21T11:01:32;11.20;99.90
18753;DHT22;9505;50.882;5.350;2024-02-21T11:04:01;11.10;99.90
18753;DHT22;9505;50.882;5.350;2024-02-21T11:06:28;11.10;99.90
18753;DHT22;9505;50.882;5.350;2024-02-21T11:09:10;11.20;99.90
18753;DHT22;9505;50.882;5.350;2024-02-21T11:11:40;11.20;99.90
18753;DHT22;9505;50.882;5.350;2024-02-21T11:14:20;11.40;99.90
18753;DHT22;9505;50.882;5.350;2024-02-21T11:16:47;11.40;99.90
18753;DHT22;9505;50.882;5.350;2024-02-21T11:19:19;11.30;99.90
18753;DHT22;9505;50.882;5.350;2024-02-21T11:21:45;11.40;99.90
18753;DHT22;9505;50.882;5.350;2024-02-21T11:24:10;11.60;99.90
18753;DHT22;9505;50.882;5.350;2024-02-21T11:26:40;11.70;99.90
18753;DHT22;9505;50.882;5.350;2024-02-21T11:29:07;11.70;99.90
18753;DHT22;9505;50.882;5.350;2024-02-21T11:31:47;11.60;99.90
18753;DHT22;9505;50.882;5.350;2024-02-21T11:34:13;11.50;99.90
18753;DHT22;9505;50.882;5.350;2024-02-21T11:36:52;11.40;99.90
18753;DHT22;9505;50.882;5.350;2024-02-21T11:39:26;11.40;99.90
18753;DHT22;9505;50.882;5.350;2024-02-21T11:42:01;11.40;99.90
18753;DHT22;9505;50.882;5.350;2024-02-21T11:44:27;11.50;99.90
18753;DHT22;9505;50.882;5.350;2024-02-21T11:46:52;11.50;99.90
18753;DHT22;9505;50.882;5.350;2024-02-21T11:49:18;11.70;99.90
18753;DHT22;9505;50.882;5.350;2024-02-21T11:51:43;11.80;99.90
18753;DHT22;9505;50.882;5.350;2024-02-21T11:54:11;11.70;99.90
18753;DHT22;9505;50.882;5.350;2024-02-21T11:56:38;11.70;99.90
18753;DHT22;9505;50.882;5.350;2024-02-21T11:59:04;12.00;99.90
18753;DHT22;9505;50.882;5.350;2024-02-21T12:01:31;12.20;99.90
18753;DHT22;9505;50.882;5.350;2024-02-21T12:03:57;12.20;99.90
18753;DHT22;9505;50.882;5.350;2024-02-21T12:06:23;12.40;99.90
18753;DHT22;9505;50.882;5.350;2024-02-21T12:08:49;12.40;99.90
18753;DHT22;9505;50.882;5.350;2024-02-21T12:11:22;12.40;99.90
18753;DHT22;9505;50.882;5.350;2024-02-21T12:14:01;12.50;99.90
18753;DHT22;9505;50.882;5.350;2024-02-21T12:16:29;12.30;99.90
18753;DHT22;9505;50.882;5.350;2024-02-21T12:18:56;12.20;99.90
18753;DHT22;9505;50.882;5.350;2024-02-21T12:21:32;12.10;99.90
18753;DHT22;9505;50.882;5.350;2024-02-21T12:23:59;12.10;99.90
18753;DHT22;9505;50.882;5.350;2024-02-21T12:26:25;12.20;99.90
18753;DHT22;9505;50.882;5.350;2024-02-21T12:28:53;12.10;99.90
18753;DHT22;9505;50.882;5.350;2024-02-21T12:31:18;12.00;99.90
18753;DHT22;9505;50.882;5.350;2024-02-21T12:33:44;12.00;99.90
18753;DHT22;9505;50.882;5.350;2024-02-21T12:36:10;12.20;99.90
18753;DHT22;9505;50.882;5.350;2024-02-21T12:38:36;12.00;99.90
18753;DHT22;9505;50.882;5.350;2024-02-21T12:41:02;12.00;99.90
18753;DHT22;9505;50.882;5.350;2024-02-21T12:43:28;12.00;99.90
18753;DHT22;9505;50.882;5.350;2024-02-21T12:45:54;12.00;99.90
18753;DHT22;9505;50.882;5.350;2024-02-21T12:48:20;11.80;99.90
18753;DHT22;9505;50.882;5.350;2024-02-21T12:50:49;11.60;99.90
18753;DHT22;9505;50.882;5.350;2024-02-21T12:53:21;11.60;99.90
18753;DHT22;9505;50.882;5.350;2024-02-21T12:55:48;11.60;99.90
18753;DHT22;9505;50.882;5.350;2024-02-21T12:58:14;11.70;99.90
18753;DHT22;9505;50.882;5.350;2024-02-21T13:00:40;11.40;99.90
18753;DHT22;9505;50.882;5.350;2024-02-21T13:03:06;11.30;99.90
18753;DHT22;9505;50.882;5.350;2024-02-21T13:05:32;11.30;99.90
18753;DHT22;9505;50.882;5.350;2024-02-21T13:07:58;11.30;99.90
18753;DHT22;9505;50.882;5.350;2024-02-21T13:10:25;11.30;99.90
18753;DHT22;9505;50.882;5.350;2024-02-21T13:12:51;11.40;99.90
18753;DHT22;9505;50.882;5.350;2024-02-21T13:15:17;11.50;99.90
18753;DHT22;9505;50.882;5.350;2024-02-21T13:17:46;11.40;99.90
18753;DHT22;9505;50.882;5.350;2024-02-21T13:20:12;11.40;99.90
18753;DHT22;9505;50.882;5.350;2024-02-21T13:22:37;11.30;99.90
18753;DHT22;9505;50.882;5.350;2024-02-21T13:25:04;11.30;99.90
18753;DHT22;9505;50.882;5.350;2024-02-21T13:27:33;11.50;99.90
18753;DHT22;9505;50.882;5.350;2024-02-21T13:29:58;11.60;99.90
18753;DHT22;9505;50.882;5.350;2024-02-21T13:32:25;11.70;99.90
18753;DHT22;9505;50.882;5.350;2024-02-21T13:34:54;11.60;99.90
18753;DHT22;9505;50.882;5.350;2024-02-21T13:37:20;11.60;99.90
18753;DHT22;9505;50.882;5.350;2024-02-21T13:39:47;11.50;99.90
18753;DHT22;9505;50.882;5.350;2024-02-21T13:42:13;11.50;99.90
18753;DHT22;9505;50.882;5.350;2024-02-21T13:44:39;11.60;99.90
18753;DHT22;9505;50.882;5.350;2024-02-21T13:47:04;11.50;99.90
18753;DHT22;9505;50.882;5.350;2024-02-21T13:49:30;11.40;99.90
18753;DHT22;9505;50.882;5.350;2024-02-21T13:51:56;11.40;99.90
18753;DHT22;9505;50.882;5.350;2024-02-21T13:54:22;11.40;99.90
18753;DHT22;9505;50.882;5.350;2024-02-21T13:56:47;11.40;99.90
18753;DHT22;9505;50.882;5.350;2024-02-21T13:59:13;11.40;99.90
18753;DHT22;9505;50.882;5.350;2024-02-21T14:01:39;11.40;99.90
18753;DHT22;9505;50.882;5.350;2024-02-21T14:04:05;11.50;99.90
18753;DHT22;9505;50.882;5.350;2024-02-21T14:06:30;11.50;99.90
18753;DHT22;9505;50.882;5.350;2024-02-21T14:08:56;11.50;99.90
18753;DHT22;9505;50.882;5.350;2024-02-21T14:11:22;11.50;99.90
18753;DHT22;9505;50.882;5.350;2024-02-21T14:13:48;11.40;99.90
18753;DHT22;9505;50.882;5.350;2024-02-21T14:16:14;11.50;99.90
18753;DHT22;9505;50.882;5.350;2024-02-21T14:18:40;11.60;99.90
18753;DHT22;9505;50.882;5.350;2024-02-21T14:21:09;11.60;99.90
18753;DHT22;9505;50.882;5.350;2024-02-21T14:23:37;11.40;99.90
18753;DHT22;9505;50.882;5.350;2024-02-21T14:26:03;11.40;99.90
18753;DHT22;9505;50.882;5.350;2024-02-21T14:28:29;11.30;99.90
18753;DHT22;9505;50.882;5.350;2024-02-21T14:30:54;11.30;99.90
18753;DHT22;9505;50.882;5.350;2024-02-21T14:33:26;11.40;99.90
18753;DHT22;9505;50.882;5.350;2024-02-21T14:35:52;11.50;99.90
18753;DHT22;9505;50.882;5.350;2024-02-21T14:38:21;11.40;99.90
18753;DHT22;9505;50.882;5.350;2024-02-21T14:40:46;11.20;99.90
18753;DHT22;9505;50.882;5.350;2024-02-21T14:43:12;11.10;99.90
18753;DHT22;9505;50.882;5.350;2024-02-21T14:45:37;11.00;99.90
18753;DHT22;9505;50.882;5.350;2024-02-21T14:48:04;10.80;99.90
18753;DHT22;9505;50.882;5.350;2024-02-21T14:50:30;10.80;99.90
18753;DHT22;9505;50.882;5.350;2024-02-21T14:52:56;10.80;99.90
18753;DHT22;9505;50.882;5.350;2024-02-21T14:55:21;10.70;99.90
18753;DHT22;9505;50.882;5.350;2024-02-21T14:57:48;10.60;99.90
18753;DHT22;9505;50.882;5.350;2024-02-21T15:00:14;10.60;99.90
18753;DHT22;9505;50.882;5.350;2024-02-21T15:02:39;10.50;99.90
18753;DHT22;9505;50.882;5.350;2024-02-21T15:05:06;10.50;99.90
18753;DHT22;9505;50.882;5.350;2024-02-21T15:07:32;10.50;99.90
18753;DHT22;9505;50.882;5.350;2024-02-21T15:09:57;10.40;99.90
18753;DHT22;9505;50.882;5.350;2024-02-21T15:12:23;10.30;99.90
18753;DHT22;9505;50.882;5.350;2024-02-21T15:14:51;10.20;99.90
18753;DHT22;9505;50.882;5.350;2024-02-21T15:17:17;10.20;99.90
18753;DHT22;9505;50.882;5.350;2024-02-21T15:19:46;10.30;99.90
18753;DHT22;9505;50.882;5.350;2024-02-21T15:22:13;10.20;99.90
18753;DHT22;9505;50.882;5.350;2024-02-21T15:24:40;10.10;99.90
18753;DHT22;9505;50.882;5.350;2024-02-21T15:27:06;10.00;99.90
18753;DHT22;9505;50.882;5.350;2024-02-21T15:29:32;9.90;99.90
18753;DHT22;9505;50.882;5.350;2024-02-21T15:31:57;9.80;99.90
18753;DHT22;9505;50.882;5.350;2024-02-21T15:34:23;9.80;99.90
18753;DHT22;9505;50.882;5.350;2024-02-21T15:36:57;9.80;99.90
18753;DHT22;9505;50.882;5.350;2024-02-21T15:39:22;9.80;99.90
18753;DHT22;9505;50.882;5.350;2024-02-21T15:41:49;9.80;99.90
18753;DHT22;9505;50.882;5.350;2024-02-21T15:44:14;9.70;99.90
18753;DHT22;9505;50.882;5.350;2024-02-21T15:46:40;9.60;99.90
18753;DHT22;9505;50.882;5.350;2024-02-21T15:49:06;9.60;99.90
18753;DHT22;9505;50.882;5.350;2024-02-21T15:51:33;9.50;99.90
18753;DHT22;9505;50.882;5.350;2024-02-21T15:54:00;9.50;99.90
18753;DHT22;9505;50.882;5.350;2024-02-21T15:56:26;9.50;99.90
18753;DHT22;9505;50.882;5.350;2024-02-21T15:58:52;9.50;99.90